Mertens, TX (76666)

12:04 AM CDT on March 30, 2015 (GMT -0500)
Schulz Farms | | Change Station
CLOSE
Current Station
Personal Weather Station
Location: Malone, TX
Elevation: 535 ft
Nearby Weather Stations

Elev 535 ft 31.96 °N, 96.90 °W | Updated 14 seconds ago

Clear
Clear
67.1 °F
Feels Like 67.1 °F
N
9.4
Wind Variable Wind from SSE

Today
High -- | Low -- °F
--% Chance of Precip.
Yesterday
High -- | Low -- °F
Precip. -- in
7:18 AM 7:45 PM
Waxing Gibbous, 77% visible
Pressure 30.10 in
Visibility 10.0 miles
Clouds Clear
Dew Point 60 °F
Humidity 78%
Rainfall 0.00 in
Snow Depth Not available.
UV 0 out of 12
Pollen 11.50 out of 12
Air Quality Not available.
Flu Activity Not available.
METAR KINJ 300455Z AUTO 15008KT 10SM CLR 19/13 A3010 RMK AO2 T01890131

More Conditions Fewer Conditions

Pressure 30.10 in
Visibility 10.0 miles
Clouds Clear
Dew Point 60 °F
Humidity 78%
Rainfall 0.00 in
Snow Depth Not available.
UV 0 out of 12
Pollen 11.50 out of 12
Air Quality Not available.
Flu Activity Not available.
METAR KINJ 300455Z AUTO 15008KT 10SM CLR 19/13 A3010 RMK AO2 T01890131

More Conditions Fewer Conditions

Nowcast | as of 11:05 PM CDT on March 29, 2015

A few showers will develop east of Interstate 35 and north of Interstate 20 through 1 am. These showers will be brief and produce only light rainfall amounts as they move east southeast around 25 mph. An isolated thunderstorms is also possible in the same area. Any storm that develops will be capable of gusty winds to 40 mph and occasional lightning. The rest of North Texas will remain mostly clear with temperatures slowly cooling into the middle and upper 60s by 1 am.

×

10-Day Weather Forecast

Almanac

Astronomy

Mar. 30, 2015 Rise Set
Actual Time
Civil Twilight
Nautical Twilight
Astronomical Twilight
Moon
Length of Visible Light
Length of Day
Tomorrow will be .
, % of the Moon is Illuminated

Today's Extremes

State Highs State Lows

Community

WunderPhotos

Upload Photos

1,809,436 photos uploaded!

WunderBlogs® & News

Nearby

Air Quality

  Air Quality AQ Index Pollutant
Not available.

Snow Depth

Station Depth Elevation

Earthquake Activity

City Distance Mag. Time & Date
Minimum magnitude displayed is 2.5.

Coastal Water Temperatures

Place Temperature

Stations

Nearby Weather Stations

Station Location Temp. Windchill Dew Point Humidity Wind Precip. Elev Updated Type